Terminal Aerodrome Forecast
Issued by NWS Jackson, KY

Home | Current Version | Previous Version | Graphics & Text | Print | Product List | Glossary On
Versions: 1 2 3 4 5 6 7 8 9 10 11 12 13 14 15 16 17 18 19
000
FTUS43 KJKL 292331
TAFLOZ
TAF
KLOZ 292331Z 3000/3024 33004KT P6SM VCSH SCT030 BKN045
     FM300500 00000KT 3SM BR BKN020
     FM301100 00000KT 3SM BR BKN030
     FM301300 VRB04KT P6SM SCT025 BKN035=

USA.gov is the U.S. government's official web portal to all federal, state and local government web resources and services.